createdAt,value
2022-07-27T04:42:28.878Z,20.87
2022-07-27T04:45:00.195Z,18.21
2022-07-27T05:14:22.275Z,21.61
2022-07-27T08:59:27.638Z,24.72
2022-07-27T09:01:58.476Z,20.95
2022-07-27T10:57:57.924Z,20.41
2022-07-27T11:01:18.980Z,23.77
2022-07-27T11:04:01.795Z,20.57
2022-07-27T11:26:19.626Z,24.28
2022-07-27T12:24:53.434Z,25.40
2022-07-27T12:41:57.812Z,25.48
2022-07-27T12:57:53.395Z,26.06
2022-07-27T13:04:03.592Z,23.81
2022-07-27T13:06:35.162Z,24.06
2022-07-27T13:15:11.441Z,25.23
2022-07-27T15:51:40.034Z,25.82
2022-07-27T15:54:13.141Z,22.74
2022-07-27T15:56:40.821Z,23.38
2022-07-27T16:16:39.689Z,24.03
2022-07-27T16:19:13.609Z,24.91
2022-07-27T16:21:53.637Z,23.74
2022-07-27T16:24:23.933Z,25.90
2022-07-27T16:26:50.855Z,25.01
2022-07-27T16:33:21.680Z,24.93
2022-07-27T17:28:23.538Z,24.54
2022-07-27T17:31:52.127Z,23.98
2022-07-27T17:44:03.135Z,22.35
2022-07-27T17:46:38.786Z,21.42
2022-07-27T17:54:15.774Z,24.07
2022-07-27T18:03:11.774Z,24.41
2022-07-27T18:08:58.747Z,24.31
2022-07-27T18:11:37.036Z,22.67
2022-07-27T18:14:19.600Z,23.99
2022-07-27T18:17:02.799Z,24.07
2022-07-27T18:44:43.984Z,20.68
2022-07-27T18:47:51.838Z,24.37
2022-07-27T18:50:39.199Z,23.87
2022-07-27T18:53:11.738Z,23.02
2022-07-27T18:55:43.290Z,21.88
2022-07-27T18:58:15.225Z,21.32
2022-07-27T19:03:48.234Z,21.81
2022-07-27T19:06:18.701Z,20.99
2022-07-27T19:09:03.904Z,22.74
2022-07-27T19:11:34.707Z,23.80
2022-07-27T19:14:05.026Z,21.79
2022-07-27T19:17:00.575Z,23.91
2022-07-27T19:19:41.736Z,22.36
2022-07-27T19:22:15.490Z,23.10
2022-07-27T19:24:50.171Z,21.15
2022-07-27T19:27:25.316Z,22.11
2022-07-27T19:29:59.359Z,21.20
2022-07-27T19:32:29.774Z,22.55
2022-07-27T19:35:00.740Z,23.92
2022-07-27T19:37:39.555Z,23.56
2022-07-27T19:40:41.465Z,24.16
2022-07-27T19:43:20.272Z,23.73
2022-07-27T19:46:16.089Z,23.69
2022-07-27T19:48:46.092Z,23.54
2022-07-27T20:18:52.699Z,21.07
2022-07-27T20:24:24.995Z,23.37
2022-07-27T20:46:57.284Z,23.20
2022-07-27T20:52:57.077Z,22.22
2022-07-27T20:55:43.702Z,22.05
2022-07-27T21:38:30.814Z,19.35
2022-07-27T21:43:49.589Z,22.34
2022-07-27T21:46:19.826Z,20.20
2022-07-27T21:49:07.833Z,22.53
2022-07-27T21:51:38.963Z,21.82
2022-07-27T21:54:15.070Z,20.62
2022-07-27T21:56:50.389Z,22.32
2022-07-27T21:59:22.407Z,20.85
2022-07-27T22:01:56.132Z,21.55
2022-07-27T22:04:25.570Z,18.77
2022-07-27T22:06:55.938Z,19.92
2022-07-27T22:09:41.063Z,22.04
2022-07-27T22:12:18.103Z,21.98
2022-07-27T22:14:49.008Z,21.63
2022-07-27T22:17:22.348Z,20.22
2022-07-27T22:19:55.333Z,21.84
2022-07-27T22:22:25.837Z,18.73
2022-07-27T22:25:02.346Z,21.90
2022-07-27T22:27:32.702Z,19.78
2022-07-27T22:30:02.981Z,18.07
2022-07-27T22:32:42.675Z,19.85
2022-07-27T22:35:12.444Z,20.31
2022-07-27T22:37:44.106Z,20.13
2022-07-27T22:40:19.071Z,20.15
2022-07-27T22:43:12.196Z,21.70
2022-07-27T22:45:42.725Z,19.65
2022-07-27T22:48:14.861Z,17.69
2022-07-27T22:50:57.598Z,19.96
2022-07-27T22:53:32.024Z,20.20
2022-07-27T22:56:01.948Z,19.87
2022-07-27T22:58:38.571Z,17.77
2022-07-27T23:01:08.210Z,19.78
2022-07-27T23:04:00.285Z,17.54
2022-07-27T23:06:40.651Z,18.76
2022-07-27T23:09:13.673Z,20.05
2022-07-27T23:11:44.233Z,19.74
2022-07-27T23:14:14.676Z,19.38
2022-07-27T23:16:45.439Z,19.29
2022-07-27T23:19:33.189Z,20.70
2022-07-27T23:22:03.543Z,18.37
2022-07-27T23:24:37.778Z,20.17
2022-07-27T23:27:11.277Z,20.67
2022-07-27T23:29:45.281Z,19.06
2022-07-27T23:32:27.671Z,18.18
2022-07-27T23:35:00.093Z,17.16
2022-07-27T23:37:30.105Z,20.45
2022-07-27T23:40:02.724Z,18.37
2022-07-27T23:42:48.316Z,19.11
2022-07-27T23:45:46.853Z,20.59
2022-07-27T23:48:20.382Z,19.77
2022-07-27T23:50:56.408Z,18.48
2022-07-27T23:53:27.693Z,20.05
2022-07-27T23:56:02.921Z,19.91
2022-07-27T23:58:39.698Z,17.69
